PWSweather.com
Personal Weather Stations
Station Observations

PoschiavoCH

Lat: 46.31962499999999, Lon: 10.066551000000004

Elevation: 3517

Station Type: WH 1080

http://www.meteoposchiavo.com

High Low Average
Temperature 61.0°F16.1°C 34.0°F1.1°C 44.2°F6.8°C
Dew Point 39.9°F4.4°C 23.6°F-4.7°C 31.9°F-0.1°C
Winds 3.5 mph 5.6 kmh Calm Calm Calm SECalm SE
Wind Gusts 6.9 mph11.1 kmh -- 1.0 mph1.6 kmh
Humidity 81% 36% 63%
Pressure 26.74 in905.5 mb 26.44 in895.4 mb -
Precipitation 0.00 in0.0 mm - -
Hour Temp Dew Point Humidity Winds Wind Gusts Pressure Precip Precip Rate Daily Precip Total
12:00 AM 39.0°F3.9°C 32.4°F0.2°C 77% Calm Calm -- 26.72 in904.8 mb - 0.00 in0.0 mm 0.00 in0.0 mm
12:10 AM 39.1°F3.9°C 31.9°F-0.1°C 75% Calm Calm -- 26.72 in904.8 mb - 0.00 in0.0 mm 0.00 in0.0 mm
12:15 AM 40.0°F4.4°C 33.0°F0.6°C 76% Calm Calm -- 26.72 in904.8 mb - 0.00 in0.0 mm 0.00 in0.0 mm
12:20 AM 39.0°F3.9°C 32.7°F0.4°C 78% Calm Calm -- 26.72 in904.8 mb - 0.00 in0.0 mm 0.00 in0.0 mm
12:25 AM 38.0°F3.3°C 32.1°F0.1°C 79% Calm Calm -- 26.72 in904.8 mb - 0.00 in0.0 mm 0.00 in0.0 mm
12:30 AM 38.0°F3.3°C 32.1°F0.1°C 79% Calm Calm -- 26.72 in904.8 mb - 0.00 in0.0 mm 0.00 in0.0 mm
12:35 AM 39.0°F3.9°C 33.7°F0.9°C 81% Calm Calm -- 26.72 in904.8 mb - 0.00 in0.0 mm 0.00 in0.0 mm
12:40 AM 38.0°F3.3°C 32.1°F0.1°C 79% 1.2 mph NE1.9 kmh NE 1.2 mph1.9 kmh 26.72 in904.8 mb - 0.00 in0.0 mm 0.00 in0.0 mm
12:45 AM 39.0°F3.9°C 33.0°F0.6°C 79% Calm Calm -- 26.72 in904.8 mb - 0.00 in0.0 mm 0.00 in0.0 mm
12:50 AM 38.0°F3.3°C 32.4°F0.2°C 80% Calm Calm -- 26.73 in905.2 mb - 0.00 in0.0 mm 0.00 in0.0 mm
12:55 AM 38.0°F3.3°C 32.4°F0.2°C 80% Calm Calm 1.2 mph1.9 kmh 26.73 in905.2 mb - 0.00 in0.0 mm 0.00 in0.0 mm
01:00 AM 38.0°F3.3°C 32.4°F0.2°C 80% Calm Calm 1.2 mph1.9 kmh 26.72 in904.8 mb - 0.00 in0.0 mm 0.00 in0.0 mm
01:10 AM 38.0°F3.3°C 32.1°F0.1°C 79% Calm Calm -- 26.72 in904.8 mb - 0.00 in0.0 mm 0.00 in0.0 mm
01:15 AM 37.0°F2.8°C 31.1°F-0.5°C 79% Calm Calm 1.2 mph1.9 kmh 26.73 in905.2 mb - 0.00 in0.0 mm 0.00 in0.0 mm
01:20 AM 38.0°F3.3°C 31.7°F-0.2°C 78% Calm Calm -- 26.73 in905.2 mb - 0.00 in0.0 mm 0.00 in0.0 mm
01:25 AM 37.0°F2.8°C 31.1°F-0.5°C 79% Calm Calm -- 26.73 in905.2 mb - 0.00 in0.0 mm 0.00 in0.0 mm
01:30 AM 37.0°F2.8°C 30.8°F-0.7°C 78% Calm Calm -- 26.73 in905.2 mb - 0.00 in0.0 mm 0.00 in0.0 mm
01:35 AM 36.0°F2.2°C 29.8°F-1.2°C 78% Calm Calm -- 26.73 in905.2 mb - 0.00 in0.0 mm 0.00 in0.0 mm
01:40 AM 36.0°F2.2°C 30.1°F-1.1°C 79% Calm Calm -- 26.72 in904.8 mb - 0.00 in0.0 mm 0.00 in0.0 mm
01:45 AM 37.0°F2.8°C 30.8°F-0.7°C 78% Calm Calm -- 26.72 in904.8 mb - 0.00 in0.0 mm 0.00 in0.0 mm
01:50 AM 37.0°F2.8°C 30.1°F-1.1°C 76% Calm Calm -- 26.73 in905.2 mb - 0.00 in0.0 mm 0.00 in0.0 mm
01:55 AM 36.0°F2.2°C 29.8°F-1.2°C 78% Calm Calm -- 26.74 in905.5 mb - 0.00 in0.0 mm 0.00 in0.0 mm
02:00 AM 36.0°F2.2°C 30.4°F-0.9°C 80% Calm Calm -- 26.73 in905.2 mb - 0.00 in0.0 mm 0.00 in0.0 mm
02:10 AM 36.0°F2.2°C 30.4°F-0.9°C 80% Calm Calm -- 26.73 in905.2 mb - 0.00 in0.0 mm 0.00 in0.0 mm
02:15 AM 36.0°F2.2°C 30.1°F-1.1°C 79% Calm Calm -- 26.72 in904.8 mb - 0.00 in0.0 mm 0.00 in0.0 mm
02:20 AM 37.0°F2.8°C 30.8°F-0.7°C 78% Calm Calm -- 26.72 in904.8 mb - 0.00 in0.0 mm 0.00 in0.0 mm
02:25 AM 36.0°F2.2°C 30.1°F-1.1°C 79% Calm Calm -- 26.72 in904.8 mb - 0.00 in0.0 mm 0.00 in0.0 mm
02:30 AM 35.1°F1.7°C 29.6°F-1.3°C 80% Calm Calm -- 26.72 in904.8 mb - 0.00 in0.0 mm 0.00 in0.0 mm
02:35 AM 35.0°F1.7°C 29.5°F-1.4°C 80% Calm Calm -- 26.72 in904.8 mb - 0.00 in0.0 mm 0.00 in0.0 mm
02:40 AM 35.0°F1.7°C 29.5°F-1.4°C 80% Calm Calm -- 26.72 in904.8 mb - 0.00 in0.0 mm 0.00 in0.0 mm
02:45 AM 35.0°F1.7°C 29.1°F-1.6°C 79% Calm Calm -- 26.71 in904.5 mb - 0.00 in0.0 mm 0.00 in0.0 mm
02:50 AM 34.0°F1.1°C 28.5°F-1.9°C 80% Calm Calm -- 26.71 in904.5 mb - 0.00 in0.0 mm 0.00 in0.0 mm
02:55 AM 34.0°F1.1°C 28.8°F-1.8°C 81% Calm Calm -- 26.71 in904.5 mb - 0.00 in0.0 mm 0.00 in0.0 mm
03:00 AM 34.0°F1.1°C 28.5°F-1.9°C 80% Calm Calm -- 26.71 in904.5 mb - 0.00 in0.0 mm 0.00 in0.0 mm
03:10 AM 35.0°F1.7°C 27.9°F-2.3°C 75% Calm Calm 1.2 mph1.9 kmh 26.70 in904.2 mb - 0.00 in0.0 mm 0.00 in0.0 mm
03:15 AM 37.0°F2.8°C 28.5°F-1.9°C 71% 2.3 mph NNW3.7 kmh NNW 2.3 mph3.7 kmh 26.70 in904.2 mb - 0.00 in0.0 mm 0.00 in0.0 mm
03:20 AM 37.8°F3.2°C 28.6°F-1.9°C 69% Calm Calm 2.3 mph3.7 kmh 26.70 in904.2 mb - 0.00 in0.0 mm 0.00 in0.0 mm
03:25 AM 38.0°F3.3°C 28.7°F-1.8°C 69% Calm Calm -- 26.70 in904.2 mb - 0.00 in0.0 mm 0.00 in0.0 mm
03:30 AM 38.0°F3.3°C 28.4°F-2.0°C 68% Calm Calm -- 26.70 in904.2 mb - 0.00 in0.0 mm 0.00 in0.0 mm
03:35 AM 37.0°F2.8°C 28.1°F-2.2°C 70% Calm Calm -- 26.69 in903.8 mb - 0.00 in0.0 mm 0.00 in0.0 mm
03:40 AM 37.0°F2.8°C 29.5°F-1.4°C 74% Calm Calm -- 26.69 in903.8 mb - 0.00 in0.0 mm 0.00 in0.0 mm
03:45 AM 36.0°F2.2°C 28.8°F-1.8°C 75% Calm Calm -- 26.69 in903.8 mb - 0.00 in0.0 mm 0.00 in0.0 mm
03:50 AM 35.0°F1.7°C 28.2°F-2.1°C 76% Calm Calm -- 26.69 in903.8 mb - 0.00 in0.0 mm 0.00 in0.0 mm
03:55 AM 36.0°F2.2°C 28.2°F-2.1°C 73% Calm Calm 1.2 mph1.9 kmh 26.69 in903.8 mb - 0.00 in0.0 mm 0.00 in0.0 mm
04:00 AM 36.0°F2.2°C 27.8°F-2.3°C 72% Calm Calm -- 26.68 in903.5 mb - 0.00 in0.0 mm 0.00 in0.0 mm
04:10 AM 36.2°F2.3°C 28.1°F-2.2°C 72% Calm Calm -- 26.67 in903.2 mb - 0.00 in0.0 mm 0.00 in0.0 mm
04:15 AM 35.7°F2.1°C 27.9°F-2.3°C 73% Calm Calm -- 26.67 in903.2 mb - 0.00 in0.0 mm 0.00 in0.0 mm
04:20 AM 35.0°F1.7°C 27.5°F-2.5°C 74% Calm Calm -- 26.68 in903.5 mb - 0.00 in0.0 mm 0.00 in0.0 mm
04:25 AM 36.0°F2.2°C 27.5°F-2.5°C 71% Calm Calm -- 26.68 in903.5 mb - 0.00 in0.0 mm 0.00 in0.0 mm
04:30 AM 36.0°F2.2°C 28.2°F-2.1°C 73% Calm Calm -- 26.68 in903.5 mb - 0.00 in0.0 mm 0.00 in0.0 mm
04:35 AM 35.0°F1.7°C 26.5°F-3.1°C 71% Calm Calm -- 26.68 in903.5 mb - 0.00 in0.0 mm 0.00 in0.0 mm
04:40 AM 36.0°F2.2°C 27.5°F-2.5°C 71% Calm Calm -- 26.68 in903.5 mb - 0.00 in0.0 mm 0.00 in0.0 mm
04:45 AM 36.0°F2.2°C 27.5°F-2.5°C 71% Calm Calm -- 26.67 in903.2 mb - 0.00 in0.0 mm 0.00 in0.0 mm
04:50 AM 36.0°F2.2°C 27.8°F-2.3°C 72% Calm Calm -- 26.67 in903.2 mb - 0.00 in0.0 mm 0.00 in0.0 mm
04:55 AM 35.0°F1.7°C 27.9°F-2.3°C 75% Calm Calm -- 26.67 in903.2 mb - 0.00 in0.0 mm 0.00 in0.0 mm
05:00 AM 35.7°F2.1°C 26.9°F-2.8°C 70% Calm Calm -- 26.66 in902.8 mb - 0.00 in0.0 mm 0.00 in0.0 mm
05:10 AM 36.0°F2.2°C 28.2°F-2.1°C 73% Calm Calm -- 26.67 in903.2 mb - 0.00 in0.0 mm 0.00 in0.0 mm
05:15 AM 36.0°F2.2°C 26.8°F-2.9°C 69% Calm Calm -- 26.67 in903.2 mb - 0.00 in0.0 mm 0.00 in0.0 mm
05:20 AM 36.0°F2.2°C 27.8°F-2.3°C 72% Calm Calm -- 26.67 in903.2 mb - 0.00 in0.0 mm 0.00 in0.0 mm
05:25 AM 36.0°F2.2°C 26.1°F-3.3°C 67% Calm Calm -- 26.66 in902.8 mb - 0.00 in0.0 mm 0.00 in0.0 mm
05:30 AM 36.0°F2.2°C 27.2°F-2.7°C 70% Calm Calm -- 26.66 in902.8 mb - 0.00 in0.0 mm 0.00 in0.0 mm
05:35 AM 35.0°F1.7°C 25.9°F-3.4°C 69% Calm Calm -- 26.66 in902.8 mb - 0.00 in0.0 mm 0.00 in0.0 mm
05:40 AM 35.0°F1.7°C 25.9°F-3.4°C 69% Calm Calm -- 26.66 in902.8 mb - 0.00 in0.0 mm 0.00 in0.0 mm
05:45 AM 35.0°F1.7°C 25.9°F-3.4°C 69% Calm Calm -- 26.65 in902.5 mb - 0.00 in0.0 mm 0.00 in0.0 mm
05:50 AM 34.3°F1.3°C 25.5°F-3.6°C 70% Calm Calm -- 26.65 in902.5 mb - 0.00 in0.0 mm 0.00 in0.0 mm
05:55 AM 34.0°F1.1°C 24.9°F-3.9°C 69% Calm Calm -- 26.65 in902.5 mb - 0.00 in0.0 mm 0.00 in0.0 mm
06:00 AM 35.0°F1.7°C 24.8°F-4.0°C 66% Calm Calm -- 26.65 in902.5 mb - 0.00 in0.0 mm 0.00 in0.0 mm
06:10 AM 35.0°F1.7°C 25.5°F-3.6°C 68% Calm Calm -- 26.64 in902.1 mb - 0.00 in0.0 mm 0.00 in0.0 mm
06:15 AM 35.0°F1.7°C 25.1°F-3.8°C 67% Calm Calm -- 26.64 in902.1 mb - 0.00 in0.0 mm 0.00 in0.0 mm
06:20 AM 35.0°F1.7°C 25.9°F-3.4°C 69% Calm Calm -- 26.64 in902.1 mb - 0.00 in0.0 mm 0.00 in0.0 mm
06:25 AM 34.0°F1.1°C 24.2°F-4.3°C 67% Calm Calm -- 26.65 in902.5 mb - 0.00 in0.0 mm 0.00 in0.0 mm
06:30 AM 35.0°F1.7°C 25.9°F-3.4°C 69% Calm Calm -- 26.65 in902.5 mb - 0.00 in0.0 mm 0.00 in0.0 mm
06:35 AM 35.0°F1.7°C 25.1°F-3.8°C 67% Calm Calm -- 26.65 in902.5 mb - 0.00 in0.0 mm 0.00 in0.0 mm
06:40 AM 35.0°F1.7°C 24.8°F-4.0°C 66% Calm Calm -- 26.65 in902.5 mb - 0.00 in0.0 mm 0.00 in0.0 mm
06:45 AM 35.0°F1.7°C 24.4°F-4.2°C 65% Calm Calm -- 26.66 in902.8 mb - 0.00 in0.0 mm 0.00 in0.0 mm
06:50 AM 36.0°F2.2°C 24.2°F-4.3°C 62% Calm Calm -- 26.65 in902.5 mb - 0.00 in0.0 mm 0.00 in0.0 mm
06:55 AM 36.0°F2.2°C 25.7°F-3.5°C 66% Calm Calm -- 26.64 in902.1 mb - 0.00 in0.0 mm 0.00 in0.0 mm
07:00 AM 35.0°F1.7°C 25.9°F-3.4°C 69% Calm Calm -- 26.65 in902.5 mb - 0.00 in0.0 mm 0.00 in0.0 mm
07:10 AM 37.0°F2.8°C 25.6°F-3.6°C 63% Calm Calm -- 26.64 in902.1 mb - 0.00 in0.0 mm 0.00 in0.0 mm
07:15 AM 37.0°F2.8°C 25.6°F-3.6°C 63% Calm Calm -- 26.64 in902.1 mb - 0.00 in0.0 mm 0.00 in0.0 mm
07:20 AM 37.6°F3.1°C 25.3°F-3.7°C 61% Calm Calm -- 26.64 in902.1 mb - 0.00 in0.0 mm 0.00 in0.0 mm
07:25 AM 38.0°F3.3°C 24.9°F-3.9°C 59% Calm Calm -- 26.64 in902.1 mb - 0.00 in0.0 mm 0.00 in0.0 mm
07:30 AM 38.0°F3.3°C 27.3°F-2.6°C 65% Calm Calm -- 26.64 in902.1 mb - 0.00 in0.0 mm 0.00 in0.0 mm
07:35 AM 38.0°F3.3°C 24.5°F-4.2°C 58% Calm Calm -- 26.64 in902.1 mb - 0.00 in0.0 mm 0.00 in0.0 mm
07:40 AM 38.0°F3.3°C 24.5°F-4.2°C 58% Calm Calm -- 26.64 in902.1 mb - 0.00 in0.0 mm 0.00 in0.0 mm
07:45 AM 39.0°F3.9°C 25.0°F-3.9°C 57% Calm Calm -- 26.64 in902.1 mb - 0.00 in0.0 mm 0.00 in0.0 mm
07:50 AM 39.0°F3.9°C 25.9°F-3.4°C 59% Calm Calm -- 26.64 in902.1 mb - 0.00 in0.0 mm 0.00 in0.0 mm
07:55 AM 39.0°F3.9°C 27.8°F-2.3°C 64% Calm Calm -- 26.64 in902.1 mb - 0.00 in0.0 mm 0.00 in0.0 mm
08:00 AM 39.0°F3.9°C 27.8°F-2.3°C 64% Calm Calm -- 26.64 in902.1 mb - 0.00 in0.0 mm 0.00 in0.0 mm
08:10 AM 39.0°F3.9°C 27.1°F-2.7°C 62% Calm Calm -- 26.63 in901.8 mb - 0.00 in0.0 mm 0.00 in0.0 mm
08:15 AM 39.0°F3.9°C 26.3°F-3.2°C 60% Calm Calm -- 26.64 in902.1 mb - 0.00 in0.0 mm 0.00 in0.0 mm
08:20 AM 41.0°F5.0°C 26.9°F-2.8°C 57% Calm Calm -- 26.63 in901.8 mb - 0.00 in0.0 mm 0.00 in0.0 mm
08:25 AM 41.0°F5.0°C 26.9°F-2.8°C 57% Calm Calm -- 26.64 in902.1 mb - 0.00 in0.0 mm 0.00 in0.0 mm
08:30 AM 41.0°F5.0°C 27.3°F-2.6°C 58% Calm Calm -- 26.63 in901.8 mb - 0.00 in0.0 mm 0.00 in0.0 mm
08:35 AM 41.0°F5.0°C 26.5°F-3.1°C 56% Calm Calm -- 26.63 in901.8 mb - 0.00 in0.0 mm 0.00 in0.0 mm
08:40 AM 42.0°F5.6°C 24.2°F-4.3°C 49% 1.2 mph NNW1.9 kmh NNW 2.3 mph3.7 kmh 26.62 in901.5 mb - 0.00 in0.0 mm 0.00 in0.0 mm
08:45 AM 42.4°F5.8°C 26.0°F-3.3°C 52% Calm Calm 2.3 mph3.7 kmh 26.62 in901.5 mb - 0.00 in0.0 mm 0.00 in0.0 mm
08:50 AM 43.0°F6.1°C 27.9°F-2.3°C 55% Calm Calm -- 26.62 in901.5 mb - 0.00 in0.0 mm 0.00 in0.0 mm
08:55 AM 43.0°F6.1°C 25.6°F-3.6°C 50% Calm Calm -- 26.61 in901.1 mb - 0.00 in0.0 mm 0.00 in0.0 mm
09:00 AM 44.0°F6.7°C 24.0°F-4.4°C 45% Calm Calm -- 26.61 in901.1 mb - 0.00 in0.0 mm 0.00 in0.0 mm
09:10 AM 44.0°F6.7°C 29.7°F-1.3°C 57% Calm Calm -- 26.60 in900.8 mb - 0.00 in0.0 mm 0.00 in0.0 mm
09:15 AM 44.0°F6.7°C 29.3°F-1.5°C 56% Calm Calm 1.2 mph1.9 kmh 26.61 in901.1 mb - 0.00 in0.0 mm 0.00 in0.0 mm
09:20 AM 45.0°F7.2°C 27.0°F-2.8°C 49% Calm Calm -- 26.61 in901.1 mb - 0.00 in0.0 mm 0.00 in0.0 mm
09:25 AM 45.6°F7.6°C 26.5°F-3.1°C 47% Calm Calm -- 26.61 in901.1 mb - 0.00 in0.0 mm 0.00 in0.0 mm
09:30 AM 46.0°F7.8°C 25.8°F-3.4°C 45% Calm Calm -- 26.61 in901.1 mb - 0.00 in0.0 mm 0.00 in0.0 mm
09:35 AM 46.0°F7.8°C 23.6°F-4.7°C 41% Calm Calm -- 26.61 in901.1 mb - 0.00 in0.0 mm 0.00 in0.0 mm
09:40 AM 47.0°F8.3°C 29.8°F-1.2°C 51% Calm Calm -- 26.61 in901.1 mb - 0.00 in0.0 mm 0.00 in0.0 mm
09:45 AM 47.0°F8.3°C 26.2°F-3.2°C 44% Calm Calm -- 26.61 in901.1 mb - 0.00 in0.0 mm 0.00 in0.0 mm
09:50 AM 48.0°F8.9°C 27.6°F-2.4°C 45% Calm Calm -- 26.60 in900.8 mb - 0.00 in0.0 mm 0.00 in0.0 mm
09:55 AM 48.0°F8.9°C 26.0°F-3.3°C 42% Calm Calm -- 26.60 in900.8 mb - 0.00 in0.0 mm 0.00 in0.0 mm
10:00 AM 48.0°F8.9°C 26.0°F-3.3°C 42% Calm Calm -- 26.60 in900.8 mb - 0.00 in0.0 mm 0.00 in0.0 mm
10:10 AM 48.0°F8.9°C 28.2°F-2.1°C 46% 2.3 mph WNW3.7 kmh WNW 3.5 mph5.6 kmh 26.62 in901.5 mb - 0.00 in0.0 mm 0.00 in0.0 mm
10:15 AM 48.0°F8.9°C 27.6°F-2.4°C 45% 1.2 mph NW1.9 kmh NW 1.2 mph1.9 kmh 26.61 in901.1 mb - 0.00 in0.0 mm 0.00 in0.0 mm
10:20 AM 49.0°F9.4°C 25.7°F-3.5°C 40% Calm Calm 1.2 mph1.9 kmh 26.61 in901.1 mb - 0.00 in0.0 mm 0.00 in0.0 mm
10:25 AM 48.0°F8.9°C 27.6°F-2.4°C 45% 1.2 mph NW1.9 kmh NW 2.3 mph3.7 kmh 26.62 in901.5 mb - 0.00 in0.0 mm 0.00 in0.0 mm
10:30 AM 48.0°F8.9°C 28.2°F-2.1°C 46% 2.3 mph WNW3.7 kmh WNW 2.3 mph3.7 kmh 26.61 in901.1 mb - 0.00 in0.0 mm 0.00 in0.0 mm
10:35 AM 48.0°F8.9°C 28.7°F-1.8°C 47% 1.2 mph N1.9 kmh N 2.3 mph3.7 kmh 26.60 in900.8 mb - 0.00 in0.0 mm 0.00 in0.0 mm
10:40 AM 49.0°F9.4°C 30.7°F-0.7°C 49% 2.3 mph W3.7 kmh W 3.5 mph5.6 kmh 26.60 in900.8 mb - 0.00 in0.0 mm 0.00 in0.0 mm
10:45 AM 50.0°F10.0°C 30.0°F-1.1°C 46% 1.2 mph NW1.9 kmh NW 3.5 mph5.6 kmh 26.60 in900.8 mb - 0.00 in0.0 mm 0.00 in0.0 mm
10:50 AM 50.0°F10.0°C 30.0°F-1.1°C 46% 1.2 mph NW1.9 kmh NW 2.3 mph3.7 kmh 26.60 in900.8 mb - 0.00 in0.0 mm 0.00 in0.0 mm
10:55 AM 50.0°F10.0°C 30.5°F-0.8°C 47% 2.3 mph W3.7 kmh W 2.3 mph3.7 kmh 26.60 in900.8 mb - 0.00 in0.0 mm 0.00 in0.0 mm
11:00 AM 50.0°F10.0°C 31.1°F-0.5°C 48% 3.5 mph W5.6 kmh W 3.5 mph5.6 kmh 26.59 in900.4 mb - 0.00 in0.0 mm 0.00 in0.0 mm
11:10 AM 50.0°F10.0°C 31.6°F-0.2°C 49% 3.5 mph W5.6 kmh W 5.8 mph9.3 kmh 26.59 in900.4 mb - 0.00 in0.0 mm 0.00 in0.0 mm
11:15 AM 50.0°F10.0°C 32.6°F0.3°C 51% 3.5 mph WSW5.6 kmh WSW 6.9 mph11.1 kmh 26.58 in900.1 mb - 0.00 in0.0 mm 0.00 in0.0 mm
11:20 AM 51.0°F10.6°C 30.9°F-0.6°C 46% 1.2 mph NW1.9 kmh NW 2.3 mph3.7 kmh 26.58 in900.1 mb - 0.00 in0.0 mm 0.00 in0.0 mm
11:25 AM 51.0°F10.6°C 32.0°F0.0°C 48% 3.5 mph W5.6 kmh W 3.5 mph5.6 kmh 26.57 in899.8 mb - 0.00 in0.0 mm 0.00 in0.0 mm
11:30 AM 51.0°F10.6°C 32.5°F0.3°C 49% 3.5 mph W5.6 kmh W 5.8 mph9.3 kmh 26.57 in899.8 mb - 0.00 in0.0 mm 0.00 in0.0 mm
11:35 AM 51.0°F10.6°C 33.0°F0.6°C 50% 3.5 mph W5.6 kmh W 5.8 mph9.3 kmh 26.56 in899.4 mb - 0.00 in0.0 mm 0.00 in0.0 mm
11:40 AM 51.0°F10.6°C 32.0°F0.0°C 48% 2.3 mph NW3.7 kmh NW 2.3 mph3.7 kmh 26.57 in899.8 mb - 0.00 in0.0 mm 0.00 in0.0 mm
11:45 AM 51.0°F10.6°C 32.5°F0.3°C 49% 2.3 mph WNW3.7 kmh WNW 2.3 mph3.7 kmh 26.56 in899.4 mb - 0.00 in0.0 mm 0.00 in0.0 mm
11:50 AM 51.0°F10.6°C 31.5°F-0.3°C 47% Calm Calm -- 26.56 in899.4 mb - 0.00 in0.0 mm 0.00 in0.0 mm
11:55 AM 52.0°F11.1°C 32.9°F0.5°C 48% 1.2 mph NW1.9 kmh NW 1.2 mph1.9 kmh 26.56 in899.4 mb - 0.00 in0.0 mm 0.00 in0.0 mm
12:00 PM 54.0°F12.2°C 32.6°F0.3°C 44% Calm Calm 1.2 mph1.9 kmh 26.55 in899.1 mb - 0.00 in0.0 mm 0.00 in0.0 mm
12:10 PM 58.7°F14.8°C 32.4°F0.2°C 37% 1.2 mph W1.9 kmh W 2.3 mph3.7 kmh 26.53 in898.4 mb - 0.00 in0.0 mm 0.00 in0.0 mm
12:15 PM 59.0°F15.0°C 32.7°F0.4°C 37% 1.2 mph WNW1.9 kmh WNW 2.3 mph3.7 kmh 26.53 in898.4 mb - 0.00 in0.0 mm 0.00 in0.0 mm
12:20 PM 59.0°F15.0°C 32.7°F0.4°C 37% Calm Calm 1.2 mph1.9 kmh 26.54 in898.7 mb - 0.00 in0.0 mm 0.00 in0.0 mm
12:25 PM 61.0°F16.1°C 33.8°F1.0°C 36% Calm Calm -- 26.52 in898.1 mb - 0.00 in0.0 mm 0.00 in0.0 mm
12:30 PM 58.0°F14.4°C 35.0°F1.7°C 42% 2.3 mph W3.7 kmh W 2.3 mph3.7 kmh 26.52 in898.1 mb - 0.00 in0.0 mm 0.00 in0.0 mm
12:35 PM 58.0°F14.4°C 35.0°F1.7°C 42% 2.3 mph W3.7 kmh W 2.3 mph3.7 kmh 26.52 in898.1 mb - 0.00 in0.0 mm 0.00 in0.0 mm
12:40 PM 55.0°F12.8°C 32.3°F0.2°C 42% 2.3 mph W3.7 kmh W 2.3 mph3.7 kmh 26.52 in898.1 mb - 0.00 in0.0 mm 0.00 in0.0 mm
12:45 PM 55.0°F12.8°C 36.2°F2.3°C 49% 2.3 mph W3.7 kmh W 2.3 mph3.7 kmh 26.52 in898.1 mb - 0.00 in0.0 mm 0.00 in0.0 mm
12:50 PM 55.0°F12.8°C 35.7°F2.1°C 48% 3.5 mph W5.6 kmh W 3.5 mph5.6 kmh 26.51 in897.7 mb - 0.00 in0.0 mm 0.00 in0.0 mm
12:55 PM 55.0°F12.8°C 34.6°F1.4°C 46% 3.5 mph W5.6 kmh W 3.5 mph5.6 kmh 26.50 in897.4 mb - 0.00 in0.0 mm 0.00 in0.0 mm
01:00 PM 54.8°F12.7°C 34.4°F1.3°C 46% 2.3 mph W3.7 kmh W 3.5 mph5.6 kmh 26.50 in897.4 mb - 0.00 in0.0 mm 0.00 in0.0 mm
01:10 PM 54.0°F12.2°C 34.7°F1.5°C 48% 3.5 mph WSW5.6 kmh WSW 3.5 mph5.6 kmh 26.49 in897.1 mb - 0.00 in0.0 mm 0.00 in0.0 mm
01:15 PM 55.0°F12.8°C 35.7°F2.1°C 48% 3.5 mph W5.6 kmh W 3.5 mph5.6 kmh 26.49 in897.1 mb - 0.00 in0.0 mm 0.00 in0.0 mm
01:20 PM 54.0°F12.2°C 35.8°F2.1°C 50% 2.3 mph W3.7 kmh W 3.5 mph5.6 kmh 26.49 in897.1 mb - 0.00 in0.0 mm 0.00 in0.0 mm
01:25 PM 54.0°F12.2°C 36.8°F2.7°C 52% 2.3 mph WSW3.7 kmh WSW 3.5 mph5.6 kmh 26.49 in897.1 mb - 0.00 in0.0 mm 0.00 in0.0 mm
01:30 PM 52.0°F11.1°C 34.4°F1.3°C 51% 3.5 mph WSW5.6 kmh WSW 5.8 mph9.3 kmh 26.49 in897.1 mb - 0.00 in0.0 mm 0.00 in0.0 mm
01:35 PM 54.0°F12.2°C 35.3°F1.8°C 49% 3.5 mph W5.6 kmh W 5.8 mph9.3 kmh 26.49 in897.1 mb - 0.00 in0.0 mm 0.00 in0.0 mm
01:40 PM 53.1°F11.7°C 35.0°F1.7°C 50% 2.3 mph W3.7 kmh W 5.8 mph9.3 kmh 26.49 in897.1 mb - 0.00 in0.0 mm 0.00 in0.0 mm
01:45 PM 52.0°F11.1°C 34.4°F1.3°C 51% 1.2 mph NW1.9 kmh NW 2.3 mph3.7 kmh 26.49 in897.1 mb - 0.00 in0.0 mm 0.00 in0.0 mm
01:50 PM 53.0°F11.7°C 35.3°F1.8°C 51% 1.2 mph W1.9 kmh W 2.3 mph3.7 kmh 26.49 in897.1 mb - 0.00 in0.0 mm 0.00 in0.0 mm
01:55 PM 53.0°F11.7°C 35.3°F1.8°C 51% 2.3 mph NW3.7 kmh NW 2.3 mph3.7 kmh 26.49 in897.1 mb - 0.00 in0.0 mm 0.00 in0.0 mm
02:00 PM 52.0°F11.1°C 34.9°F1.6°C 52% 2.3 mph NW3.7 kmh NW 2.3 mph3.7 kmh 26.49 in897.1 mb - 0.00 in0.0 mm 0.00 in0.0 mm
02:10 PM 52.0°F11.1°C 34.9°F1.6°C 52% 2.3 mph NNW3.7 kmh NNW 2.3 mph3.7 kmh 26.49 in897.1 mb - 0.00 in0.0 mm 0.00 in0.0 mm
02:15 PM 53.0°F11.7°C 34.8°F1.6°C 50% 2.3 mph NW3.7 kmh NW 3.5 mph5.6 kmh 26.48 in896.7 mb - 0.00 in0.0 mm 0.00 in0.0 mm
02:20 PM 53.6°F12.0°C 35.9°F2.2°C 51% 1.2 mph NW1.9 kmh NW 3.5 mph5.6 kmh 26.47 in896.4 mb - 0.00 in0.0 mm 0.00 in0.0 mm
02:25 PM 54.0°F12.2°C 36.3°F2.4°C 51% 1.2 mph NNW1.9 kmh NNW 2.3 mph3.7 kmh 26.47 in896.4 mb - 0.00 in0.0 mm 0.00 in0.0 mm
02:30 PM 55.0°F12.8°C 36.2°F2.3°C 49% 2.3 mph N3.7 kmh N 2.3 mph3.7 kmh 26.46 in896.0 mb - 0.00 in0.0 mm 0.00 in0.0 mm
02:35 PM 56.0°F13.3°C 37.1°F2.8°C 49% 1.2 mph NNW1.9 kmh NNW 2.3 mph3.7 kmh 26.47 in896.4 mb - 0.00 in0.0 mm 0.00 in0.0 mm
02:40 PM 55.0°F12.8°C 35.1°F1.7°C 47% 1.2 mph N1.9 kmh N 1.2 mph1.9 kmh 26.46 in896.0 mb - 0.00 in0.0 mm 0.00 in0.0 mm
02:45 PM 55.0°F12.8°C 37.2°F2.9°C 51% 1.2 mph NW1.9 kmh NW 2.3 mph3.7 kmh 26.45 in895.7 mb - 0.00 in0.0 mm 0.00 in0.0 mm
02:50 PM 54.0°F12.2°C 36.8°F2.7°C 52% 1.2 mph WNW1.9 kmh WNW 2.3 mph3.7 kmh 26.46 in896.0 mb - 0.00 in0.0 mm 0.00 in0.0 mm
02:55 PM 54.0°F12.2°C 36.3°F2.4°C 51% 2.3 mph NW3.7 kmh NW 3.5 mph5.6 kmh 26.46 in896.0 mb - 0.00 in0.0 mm 0.00 in0.0 mm
03:00 PM 54.0°F12.2°C 36.3°F2.4°C 51% 1.2 mph NE1.9 kmh NE 3.5 mph5.6 kmh 26.46 in896.0 mb - 0.00 in0.0 mm 0.00 in0.0 mm
03:10 PM 56.0°F13.3°C 38.1°F3.4°C 51% 2.3 mph N3.7 kmh N 2.3 mph3.7 kmh 26.46 in896.0 mb - 0.00 in0.0 mm 0.00 in0.0 mm
03:15 PM 54.0°F12.2°C 36.8°F2.7°C 52% 1.2 mph NW1.9 kmh NW 1.2 mph1.9 kmh 26.46 in896.0 mb - 0.00 in0.0 mm 0.00 in0.0 mm
03:20 PM 54.0°F12.2°C 37.2°F2.9°C 53% Calm Calm -- 26.46 in896.0 mb - 0.00 in0.0 mm 0.00 in0.0 mm
03:25 PM 55.0°F12.8°C 37.2°F2.9°C 51% 1.2 mph N1.9 kmh N 1.2 mph1.9 kmh 26.46 in896.0 mb - 0.00 in0.0 mm 0.00 in0.0 mm
03:30 PM 54.0°F12.2°C 37.7°F3.2°C 54% Calm Calm -- 26.44 in895.4 mb - 0.00 in0.0 mm 0.00 in0.0 mm
03:35 PM 55.0°F12.8°C 37.2°F2.9°C 51% Calm Calm 1.2 mph1.9 kmh 26.46 in896.0 mb - 0.00 in0.0 mm 0.00 in0.0 mm
03:40 PM 55.0°F12.8°C 36.7°F2.6°C 50% 1.2 mph N1.9 kmh N 2.3 mph3.7 kmh 26.46 in896.0 mb - 0.00 in0.0 mm 0.00 in0.0 mm
03:45 PM 54.5°F12.5°C 36.8°F2.7°C 51% 1.2 mph NNW1.9 kmh NNW 2.3 mph3.7 kmh 26.45 in895.7 mb - 0.00 in0.0 mm 0.00 in0.0 mm
03:50 PM 54.0°F12.2°C 37.2°F2.9°C 53% 1.2 mph NNW1.9 kmh NNW 1.2 mph1.9 kmh 26.45 in895.7 mb - 0.00 in0.0 mm 0.00 in0.0 mm
03:55 PM 54.0°F12.2°C 37.2°F2.9°C 53% 1.2 mph N1.9 kmh N 2.3 mph3.7 kmh 26.45 in895.7 mb - 0.00 in0.0 mm 0.00 in0.0 mm
04:00 PM 54.0°F12.2°C 37.2°F2.9°C 53% 1.2 mph NW1.9 kmh NW 2.3 mph3.7 kmh 26.45 in895.7 mb - 0.00 in0.0 mm 0.00 in0.0 mm
04:10 PM 53.0°F11.7°C 35.8°F2.1°C 52% Calm Calm 1.2 mph1.9 kmh 26.45 in895.7 mb - 0.00 in0.0 mm 0.00 in0.0 mm
04:15 PM 54.0°F12.2°C 37.2°F2.9°C 53% Calm Calm -- 26.45 in895.7 mb - 0.00 in0.0 mm 0.00 in0.0 mm
04:20 PM 55.0°F12.8°C 37.2°F2.9°C 51% Calm Calm -- 26.45 in895.7 mb - 0.00 in0.0 mm 0.00 in0.0 mm
04:25 PM 57.7°F14.3°C 38.1°F3.4°C 48% Calm Calm -- 26.45 in895.7 mb - 0.00 in0.0 mm 0.00 in0.0 mm
04:30 PM 59.0°F15.0°C 38.2°F3.4°C 46% Calm Calm 1.2 mph1.9 kmh 26.45 in895.7 mb - 0.00 in0.0 mm 0.00 in0.0 mm
04:35 PM 59.0°F15.0°C 39.9°F4.4°C 49% Calm Calm 1.2 mph1.9 kmh 26.44 in895.4 mb - 0.00 in0.0 mm 0.00 in0.0 mm
04:40 PM 56.0°F13.3°C 37.6°F3.1°C 50% Calm Calm -- 26.45 in895.7 mb - 0.00 in0.0 mm 0.00 in0.0 mm
04:45 PM 55.0°F12.8°C 39.1°F3.9°C 55% Calm Calm -- 26.45 in895.7 mb - 0.00 in0.0 mm 0.00 in0.0 mm
04:50 PM 54.0°F12.2°C 38.6°F3.7°C 56% Calm Calm -- 26.45 in895.7 mb - 0.00 in0.0 mm 0.00 in0.0 mm
04:55 PM 53.0°F11.7°C 38.2°F3.4°C 57% Calm Calm -- 26.44 in895.4 mb - 0.00 in0.0 mm 0.00 in0.0 mm
05:00 PM 52.0°F11.1°C 37.7°F3.2°C 58% Calm Calm -- 26.44 in895.4 mb - 0.00 in0.0 mm 0.00 in0.0 mm
05:10 PM 52.0°F11.1°C 37.2°F2.9°C 57% Calm Calm -- 26.45 in895.7 mb - 0.00 in0.0 mm 0.00 in0.0 mm
05:15 PM 52.0°F11.1°C 36.8°F2.7°C 56% Calm Calm -- 26.45 in895.7 mb - 0.00 in0.0 mm 0.00 in0.0 mm
05:20 PM 52.0°F11.1°C 37.7°F3.2°C 58% Calm Calm -- 26.45 in895.7 mb - 0.00 in0.0 mm 0.00 in0.0 mm
05:25 PM 51.0°F10.6°C 38.4°F3.6°C 62% Calm Calm -- 26.45 in895.7 mb - 0.00 in0.0 mm 0.00 in0.0 mm
05:30 PM 51.0°F10.6°C 38.8°F3.8°C 63% Calm Calm -- 26.45 in895.7 mb - 0.00 in0.0 mm 0.00 in0.0 mm
05:35 PM 51.0°F10.6°C 38.4°F3.6°C 62% Calm Calm -- 26.46 in896.0 mb - 0.00 in0.0 mm 0.00 in0.0 mm
05:40 PM 51.0°F10.6°C 38.0°F3.3°C 61% Calm Calm -- 26.46 in896.0 mb - 0.00 in0.0 mm 0.00 in0.0 mm
05:45 PM 50.0°F10.0°C 37.5°F3.1°C 62% Calm Calm -- 26.45 in895.7 mb - 0.00 in0.0 mm 0.00 in0.0 mm
05:50 PM 50.0°F10.0°C 37.5°F3.1°C 62% Calm Calm -- 26.46 in896.0 mb - 0.00 in0.0 mm 0.00 in0.0 mm
05:55 PM 50.0°F10.0°C 37.5°F3.1°C 62% Calm Calm -- 26.46 in896.0 mb - 0.00 in0.0 mm 0.00 in0.0 mm
06:00 PM 50.0°F10.0°C 37.9°F3.3°C 63% Calm Calm -- 26.46 in896.0 mb - 0.00 in0.0 mm 0.00 in0.0 mm
06:10 PM 49.0°F9.4°C 38.1°F3.4°C 66% Calm Calm -- 26.46 in896.0 mb - 0.00 in0.0 mm 0.00 in0.0 mm
06:15 PM 48.0°F8.9°C 36.8°F2.7°C 65% Calm Calm -- 26.46 in896.0 mb - 0.00 in0.0 mm 0.00 in0.0 mm
06:20 PM 48.0°F8.9°C 37.2°F2.9°C 66% Calm Calm -- 26.46 in896.0 mb - 0.00 in0.0 mm 0.00 in0.0 mm
06:25 PM 48.0°F8.9°C 37.6°F3.1°C 67% Calm Calm -- 26.47 in896.4 mb - 0.00 in0.0 mm 0.00 in0.0 mm
06:30 PM 48.0°F8.9°C 37.9°F3.3°C 68% Calm Calm -- 26.47 in896.4 mb - 0.00 in0.0 mm 0.00 in0.0 mm
06:35 PM 47.5°F8.6°C 37.5°F3.1°C 68% Calm Calm -- 26.48 in896.7 mb - 0.00 in0.0 mm 0.00 in0.0 mm
06:40 PM 47.0°F8.3°C 37.4°F3.0°C 69% Calm Calm -- 26.48 in896.7 mb - 0.00 in0.0 mm 0.00 in0.0 mm
06:45 PM 47.0°F8.3°C 37.0°F2.8°C 68% Calm Calm 1.2 mph1.9 kmh 26.47 in896.4 mb - 0.00 in0.0 mm 0.00 in0.0 mm
06:50 PM 47.0°F8.3°C 37.4°F3.0°C 69% Calm Calm -- 26.47 in896.4 mb - 0.00 in0.0 mm 0.00 in0.0 mm
06:55 PM 46.0°F7.8°C 36.4°F2.4°C 69% Calm Calm -- 26.48 in896.7 mb - 0.00 in0.0 mm 0.00 in0.0 mm
07:00 PM 46.0°F7.8°C 36.0°F2.2°C 68% Calm Calm -- 26.48 in896.7 mb - 0.00 in0.0 mm 0.00 in0.0 mm
07:10 PM 45.0°F7.2°C 36.2°F2.3°C 71% Calm Calm -- 26.48 in896.7 mb - 0.00 in0.0 mm 0.00 in0.0 mm
07:15 PM 46.0°F7.8°C 37.1°F2.8°C 71% Calm Calm -- 26.49 in897.1 mb - 0.00 in0.0 mm 0.00 in0.0 mm
07:20 PM 45.4°F7.4°C 36.9°F2.7°C 72% Calm Calm -- 26.49 in897.1 mb - 0.00 in0.0 mm 0.00 in0.0 mm
07:25 PM 44.9°F7.2°C 36.4°F2.4°C 72% Calm Calm -- 26.49 in897.1 mb - 0.00 in0.0 mm 0.00 in0.0 mm
07:30 PM 44.0°F6.7°C 35.9°F2.2°C 73% Calm Calm -- 26.49 in897.1 mb - 0.00 in0.0 mm 0.00 in0.0 mm
07:35 PM 44.0°F6.7°C 35.9°F2.2°C 73% Calm Calm -- 26.49 in897.1 mb - 0.00 in0.0 mm 0.00 in0.0 mm
07:40 PM 44.0°F6.7°C 35.9°F2.2°C 73% Calm Calm -- 26.48 in896.7 mb - 0.00 in0.0 mm 0.00 in0.0 mm
07:45 PM 44.0°F6.7°C 35.9°F2.2°C 73% Calm Calm -- 26.49 in897.1 mb - 0.00 in0.0 mm 0.00 in0.0 mm
07:50 PM 44.0°F6.7°C 35.6°F2.0°C 72% Calm Calm -- 26.49 in897.1 mb - 0.00 in0.0 mm 0.00 in0.0 mm
07:55 PM 43.0°F6.1°C 35.3°F1.8°C 74% Calm Calm 1.2 mph1.9 kmh 26.49 in897.1 mb - 0.00 in0.0 mm 0.00 in0.0 mm
08:00 PM 44.0°F6.7°C 36.2°F2.3°C 74% Calm Calm -- 26.49 in897.1 mb - 0.00 in0.0 mm 0.00 in0.0 mm
08:10 PM 43.5°F6.4°C 35.7°F2.1°C 74% Calm Calm 1.2 mph1.9 kmh 26.50 in897.4 mb - 0.00 in0.0 mm 0.00 in0.0 mm
08:15 PM 44.0°F6.7°C 36.2°F2.3°C 74% Calm Calm -- 26.50 in897.4 mb - 0.00 in0.0 mm 0.00 in0.0 mm
08:20 PM 43.0°F6.1°C 35.3°F1.8°C 74% Calm Calm -- 26.50 in897.4 mb - 0.00 in0.0 mm 0.00 in0.0 mm
08:25 PM 43.0°F6.1°C 35.3°F1.8°C 74% Calm Calm -- 26.50 in897.4 mb - 0.00 in0.0 mm 0.00 in0.0 mm
08:30 PM 44.0°F6.7°C 35.9°F2.2°C 73% Calm Calm -- 26.50 in897.4 mb - 0.00 in0.0 mm 0.00 in0.0 mm
08:35 PM 43.0°F6.1°C 35.3°F1.8°C 74% Calm Calm -- 26.50 in897.4 mb - 0.00 in0.0 mm 0.00 in0.0 mm
08:40 PM 43.0°F6.1°C 35.3°F1.8°C 74% Calm Calm -- 26.50 in897.4 mb - 0.00 in0.0 mm 0.00 in0.0 mm
08:45 PM 43.0°F6.1°C 35.6°F2.0°C 75% Calm Calm -- 26.50 in897.4 mb - 0.00 in0.0 mm 0.00 in0.0 mm
08:50 PM 42.0°F5.6°C 34.3°F1.3°C 74% 1.2 mph NNW1.9 kmh NNW 2.3 mph3.7 kmh 26.50 in897.4 mb - 0.00 in0.0 mm 0.00 in0.0 mm
08:55 PM 42.0°F5.6°C 34.3°F1.3°C 74% Calm Calm 2.3 mph3.7 kmh 26.50 in897.4 mb - 0.00 in0.0 mm 0.00 in0.0 mm
09:00 PM 42.0°F5.6°C 34.6°F1.4°C 75% Calm Calm -- 26.50 in897.4 mb - 0.00 in0.0 mm 0.00 in0.0 mm
09:10 PM 41.0°F5.0°C 34.3°F1.3°C 77% Calm Calm -- 26.50 in897.4 mb - 0.00 in0.0 mm 0.00 in0.0 mm
09:15 PM 41.0°F5.0°C 34.3°F1.3°C 77% Calm Calm -- 26.51 in897.7 mb - 0.00 in0.0 mm 0.00 in0.0 mm
09:20 PM 41.0°F5.0°C 34.3°F1.3°C 77% Calm Calm -- 26.51 in897.7 mb - 0.00 in0.0 mm 0.00 in0.0 mm
09:25 PM 41.0°F5.0°C 34.7°F1.5°C 78% Calm Calm -- 26.51 in897.7 mb - 0.00 in0.0 mm 0.00 in0.0 mm
09:30 PM 41.0°F5.0°C 34.7°F1.5°C 78% Calm Calm -- 26.52 in898.1 mb - 0.00 in0.0 mm 0.00 in0.0 mm
09:35 PM 41.0°F5.0°C 34.3°F1.3°C 77% Calm Calm 1.2 mph1.9 kmh 26.52 in898.1 mb - 0.00 in0.0 mm 0.00 in0.0 mm
09:40 PM 41.0°F5.0°C 34.0°F1.1°C 76% Calm Calm -- 26.52 in898.1 mb - 0.00 in0.0 mm 0.00 in0.0 mm
09:45 PM 41.0°F5.0°C 34.3°F1.3°C 77% Calm Calm -- 26.51 in897.7 mb - 0.00 in0.0 mm 0.00 in0.0 mm
09:50 PM 41.0°F5.0°C 34.3°F1.3°C 77% Calm Calm -- 26.51 in897.7 mb - 0.00 in0.0 mm 0.00 in0.0 mm
09:55 PM 41.0°F5.0°C 34.7°F1.5°C 78% Calm Calm -- 26.52 in898.1 mb - 0.00 in0.0 mm 0.00 in0.0 mm
10:00 PM 41.0°F5.0°C 33.7°F0.9°C 75% 1.2 mph N1.9 kmh N 1.2 mph1.9 kmh 26.52 in898.1 mb - 0.00 in0.0 mm 0.00 in0.0 mm
10:10 PM 41.0°F5.0°C 34.0°F1.1°C 76% Calm Calm -- 26.54 in898.7 mb - 0.00 in0.0 mm 0.00 in0.0 mm
10:15 PM 41.0°F5.0°C 34.7°F1.5°C 78% Calm Calm -- 26.53 in898.4 mb - 0.00 in0.0 mm 0.00 in0.0 mm
10:20 PM 42.0°F5.6°C 34.6°F1.4°C 75% 1.2 mph N1.9 kmh N 1.2 mph1.9 kmh 26.53 in898.4 mb - 0.00 in0.0 mm 0.00 in0.0 mm
10:25 PM 42.0°F5.6°C 34.3°F1.3°C 74% Calm Calm -- 26.52 in898.1 mb - 0.00 in0.0 mm 0.00 in0.0 mm
10:30 PM 42.0°F5.6°C 34.3°F1.3°C 74% Calm Calm -- 26.52 in898.1 mb - 0.00 in0.0 mm 0.00 in0.0 mm
10:35 PM 41.1°F5.1°C 34.1°F1.2°C 76% Calm Calm -- 26.52 in898.1 mb - 0.00 in0.0 mm 0.00 in0.0 mm
10:40 PM 41.0°F5.0°C 33.7°F0.9°C 75% Calm Calm -- 26.52 in898.1 mb - 0.00 in0.0 mm 0.00 in0.0 mm
10:45 PM 41.0°F5.0°C 33.0°F0.6°C 73% Calm Calm -- 26.53 in898.4 mb - 0.00 in0.0 mm 0.00 in0.0 mm
10:50 PM 41.0°F5.0°C 33.3°F0.7°C 74% Calm Calm -- 26.53 in898.4 mb - 0.00 in0.0 mm 0.00 in0.0 mm
10:55 PM 41.0°F5.0°C 32.0°F0.0°C 70% Calm Calm -- 26.52 in898.1 mb - 0.00 in0.0 mm 0.00 in0.0 mm
11:00 PM 41.0°F5.0°C 32.3°F0.2°C 71% Calm Calm -- 26.53 in898.4 mb - 0.00 in0.0 mm 0.00 in0.0 mm
11:10 PM 41.0°F5.0°C 30.9°F-0.6°C 67% Calm Calm -- 26.53 in898.4 mb - 0.00 in0.0 mm 0.00 in0.0 mm
11:15 PM 41.0°F5.0°C 32.3°F0.2°C 71% Calm Calm -- 26.53 in898.4 mb - 0.00 in0.0 mm 0.00 in0.0 mm
11:20 PM 40.0°F4.4°C 30.6°F-0.8°C 69% 1.2 mph N1.9 kmh N 1.2 mph1.9 kmh 26.53 in898.4 mb - 0.00 in0.0 mm 0.00 in0.0 mm
11:25 PM 40.8°F4.9°C 32.1°F0.1°C 71% Calm Calm 1.2 mph1.9 kmh 26.53 in898.4 mb - 0.00 in0.0 mm 0.00 in0.0 mm
11:30 PM 41.0°F5.0°C 32.3°F0.2°C 71% Calm Calm 1.2 mph1.9 kmh 26.53 in898.4 mb - 0.00 in0.0 mm 0.00 in0.0 mm
11:35 PM 41.0°F5.0°C 31.6°F-0.2°C 69% Calm Calm -- 26.53 in898.4 mb - 0.00 in0.0 mm 0.00 in0.0 mm
11:40 PM 40.0°F4.4°C 31.0°F-0.6°C 70% Calm Calm -- 26.53 in898.4 mb - 0.00 in0.0 mm 0.00 in0.0 mm
11:45 PM 40.0°F4.4°C 31.4°F-0.3°C 71% Calm Calm -- 26.53 in898.4 mb - 0.00 in0.0 mm 0.00 in0.0 mm
11:50 PM 40.0°F4.4°C 30.6°F-0.8°C 69% Calm Calm -- 26.53 in898.4 mb - 0.00 in0.0 mm 0.00 in0.0 mm
11:55 PM 40.0°F4.4°C 30.3°F-0.9°C 68% Calm Calm -- 26.53 in898.4 mb - 0.00 in0.0 mm 0.00 in0.0 mm